createdAt,value
2017-12-23T00:00:52.812Z,99350.17
2017-12-23T00:02:30.252Z,99369.94
2017-12-23T00:04:07.586Z,99205.28
2017-12-23T00:05:44.519Z,99071.66
2017-12-23T00:07:21.232Z,99146.86
2017-12-23T00:09:00.175Z,99224.27
2017-12-23T00:10:37.314Z,99307.84
2017-12-23T00:12:14.109Z,99277.50
2017-12-23T00:13:51.167Z,99289.36
2017-12-23T00:15:34.590Z,99248.43
2017-12-23T00:17:11.853Z,99219.40
2017-12-23T00:18:48.705Z,99053.21
2017-12-23T00:20:25.485Z,98885.32
2017-12-23T00:22:02.647Z,98837.92
2017-12-23T00:23:40.162Z,98850.22
2017-12-23T00:25:16.966Z,98924.89
2017-12-23T00:26:53.649Z,98948.63
2017-12-23T00:28:30.361Z,99095.86
2017-12-23T00:30:08.447Z,99152.95
2017-12-23T00:31:45.489Z,99285.84
2017-12-23T00:33:22.362Z,99336.88
2017-12-23T00:35:00.058Z,99323.18
2017-12-23T00:36:38.252Z,99306.47
2017-12-23T00:38:16.807Z,99246.63
2017-12-23T00:39:53.817Z,99191.19
2017-12-23T00:41:41.808Z,99153.39
2017-12-23T00:43:19.111Z,99160.37
2017-12-23T00:44:56.925Z,99133.65
2017-12-23T00:46:33.885Z,99122.66
2017-12-23T00:48:15.141Z,99210.15
2017-12-23T00:49:52.434Z,99195.66
2017-12-23T00:51:29.455Z,99182.06
2017-12-23T00:53:06.343Z,99230.42
2017-12-23T00:54:43.505Z,99166.11
2017-12-23T00:56:20.656Z,99000.00
2017-12-23T00:57:58.838Z,99030.79
2017-12-23T00:59:36.631Z,99151.65
2017-12-23T01:01:16.092Z,99069.89
2017-12-23T01:02:53.468Z,98996.96
2017-12-23T01:04:34.733Z,98983.73
2017-12-23T01:06:20.318Z,99128.78
2017-12-23T01:07:57.182Z,99250.66
2017-12-23T01:09:34.343Z,99220.27
2017-12-23T01:11:11.972Z,99005.67
2017-12-23T01:12:48.897Z,99097.62
2017-12-23T01:14:25.748Z,99197.89
2017-12-23T01:16:03.290Z,99261.66
2017-12-23T01:17:40.191Z,99302.59
2017-12-23T01:19:18.064Z,99271.72
2017-12-23T01:20:55.141Z,99284.48
2017-12-23T01:22:32.503Z,99160.40
2017-12-23T01:24:15.898Z,99153.91
2017-12-23T01:25:52.772Z,99171.45
2017-12-23T01:27:29.780Z,99230.45
2017-12-23T01:29:07.818Z,99222.94
2017-12-23T01:30:44.579Z,99255.42
2017-12-23T01:32:28.218Z,99121.30
2017-12-23T01:34:05.183Z,98971.08
2017-12-23T01:35:45.139Z,99050.14
2017-12-23T01:37:22.098Z,99130.55
2017-12-23T01:39:02.719Z,99230.89
2017-12-23T01:40:39.556Z,99273.55
2017-12-23T01:42:16.678Z,99258.09
2017-12-23T01:43:53.503Z,99272.19
2017-12-23T01:45:30.276Z,99290.20
2017-12-23T01:47:07.175Z,99269.08
2017-12-23T01:48:45.402Z,99232.07
2017-12-23T01:50:22.209Z,99188.58
2017-12-23T01:51:59.018Z,99163.04
2017-12-23T01:53:35.872Z,99119.97
2017-12-23T01:55:15.804Z,99103.28
2017-12-23T01:56:53.483Z,99022.82
2017-12-23T01:58:30.280Z,98954.31
2017-12-23T02:00:07.337Z,99058.45
2017-12-23T02:01:45.397Z,99121.70
2017-12-23T02:03:22.154Z,99072.50
2017-12-23T02:04:59.068Z,99139.73
2017-12-23T02:06:35.999Z,99142.84
2017-12-23T02:08:16.039Z,99139.76
2017-12-23T02:09:52.882Z,99073.84
2017-12-23T02:11:30.008Z,98929.23
2017-12-23T02:13:07.760Z,98876.52
2017-12-23T02:14:44.542Z,98968.44
2017-12-23T02:16:25.773Z,98986.36
2017-12-23T02:18:03.410Z,98874.30
2017-12-23T02:19:40.393Z,98901.16
2017-12-23T02:21:18.510Z,98944.27
2017-12-23T02:22:56.157Z,98873.02
2017-12-23T02:24:33.043Z,98883.16
2017-12-23T02:26:09.729Z,98866.89
2017-12-23T02:27:47.924Z,98937.63
2017-12-23T02:29:25.404Z,99000.90
2017-12-23T02:31:03.050Z,98931.93
2017-12-23T02:32:39.833Z,98850.19
2017-12-23T02:34:16.972Z,98752.33
2017-12-23T02:35:54.582Z,98749.73
2017-12-23T02:37:31.474Z,98662.79
2017-12-23T02:39:14.028Z,98743.57
2017-12-23T02:40:51.297Z,98852.83
2017-12-23T02:42:28.390Z,98822.13
2017-12-23T02:44:06.291Z,98817.77
2017-12-23T02:45:45.119Z,98895.42
2017-12-23T02:47:24.343Z,99027.66
2017-12-23T02:49:03.148Z,99102.81
2017-12-23T02:50:41.930Z,98897.16
2017-12-23T02:52:18.926Z,98874.35
2017-12-23T02:53:57.291Z,98919.59
2017-12-23T02:55:34.463Z,98967.91
2017-12-23T02:57:11.387Z,99066.42
2017-12-23T02:58:48.470Z,99119.09
2017-12-23T03:00:27.745Z,98995.56
2017-12-23T03:02:05.029Z,99072.53
2017-12-23T03:03:41.778Z,99010.98
2017-12-23T03:05:18.538Z,99008.34
2017-12-23T03:06:55.831Z,99090.95
2017-12-23T03:08:32.635Z,98982.45
2017-12-23T03:10:10.232Z,99106.41
2017-12-23T03:11:47.783Z,99189.88
2017-12-23T03:13:26.706Z,99222.91
2017-12-23T03:15:03.534Z,99223.37
2017-12-23T03:16:40.261Z,99120.89
2017-12-23T03:18:17.018Z,99101.97
2017-12-23T03:19:54.241Z,99117.77
2017-12-23T03:21:31.016Z,99124.80
2017-12-23T03:23:07.986Z,99122.66
2017-12-23T03:24:44.727Z,99142.43
2017-12-23T03:26:22.395Z,99137.19
2017-12-23T03:27:59.369Z,99102.90
2017-12-23T03:29:36.144Z,99113.82
2017-12-23T03:31:12.945Z,99187.27
2017-12-23T03:32:50.051Z,99221.20
2017-12-23T03:34:27.640Z,99340.88
2017-12-23T03:36:04.416Z,99370.83
2017-12-23T03:37:42.039Z,99365.17
2017-12-23T03:39:19.087Z,99362.03
2017-12-23T03:40:56.904Z,99306.03
2017-12-23T03:42:33.668Z,99219.40
2017-12-23T03:44:10.384Z,99098.00
2017-12-23T03:45:47.473Z,98991.20
2017-12-23T03:47:24.123Z,98918.33
2017-12-23T03:49:00.747Z,98910.33
2017-12-23T03:50:38.776Z,98840.56
2017-12-23T03:52:16.505Z,98895.86
2017-12-23T03:53:53.253Z,98906.86
2017-12-23T03:55:30.175Z,98868.69
2017-12-23T03:57:07.100Z,98793.58
2017-12-23T03:58:44.537Z,98716.30
2017-12-23T04:00:27.659Z,98636.49
2017-12-23T04:02:04.532Z,98596.62
2017-12-23T04:03:41.440Z,98497.97
2017-12-23T04:05:19.494Z,98430.56
2017-12-23T04:06:56.254Z,98399.05
2017-12-23T04:08:33.162Z,98311.82
2017-12-23T04:10:11.511Z,98261.98
2017-12-23T04:11:48.291Z,98305.80
2017-12-23T04:13:25.811Z,98306.14
2017-12-23T04:15:02.714Z,98286.84
2017-12-23T04:16:40.596Z,98247.98
2017-12-23T04:18:17.566Z,98237.41
2017-12-23T04:19:54.644Z,98268.93
2017-12-23T04:21:32.157Z,98279.92
2017-12-23T04:23:08.858Z,98306.07
2017-12-23T04:24:46.069Z,98345.55
2017-12-23T04:26:22.736Z,98373.95
2017-12-23T04:28:00.372Z,98356.98
2017-12-23T04:29:38.035Z,98315.77
2017-12-23T04:31:15.563Z,98320.62
2017-12-23T04:32:52.234Z,98338.53
2017-12-23T04:34:28.915Z,98362.13
2017-12-23T04:36:05.698Z,98352.59
2017-12-23T04:37:42.884Z,98436.16
2017-12-23T04:39:19.532Z,98470.38
2017-12-23T04:40:56.266Z,98557.16
2017-12-23T04:42:33.013Z,98596.16
2017-12-23T04:44:09.686Z,98603.14
2017-12-23T04:45:46.444Z,98652.67
2017-12-23T04:47:23.119Z,98658.43
2017-12-23T04:48:59.842Z,98676.41
2017-12-23T04:50:37.335Z,98687.83
2017-12-23T04:52:14.839Z,98799.34
2017-12-23T04:53:53.271Z,98880.95
2017-12-23T04:55:30.536Z,98944.17
2017-12-23T04:57:07.301Z,98864.23
2017-12-23T04:58:45.243Z,98820.83
2017-12-23T05:00:21.977Z,98895.02
2017-12-23T05:02:00.320Z,98909.50
2017-12-23T05:03:37.081Z,98921.33
2017-12-23T05:05:13.656Z,98918.67
2017-12-23T05:06:50.336Z,98795.77
2017-12-23T05:08:27.535Z,98786.52
2017-12-23T05:10:04.219Z,98766.27
2017-12-23T05:11:42.700Z,98726.39
2017-12-23T05:13:20.368Z,98652.67
2017-12-23T05:14:57.331Z,98677.73
2017-12-23T05:16:34.748Z,98677.23
2017-12-23T05:18:11.519Z,98629.91
2017-12-23T05:19:48.391Z,98581.70
2017-12-23T05:21:26.878Z,98525.15
2017-12-23T05:23:04.334Z,98556.29
2017-12-23T05:24:41.970Z,98571.59
2017-12-23T05:26:18.674Z,98601.84
2017-12-23T05:27:55.735Z,98615.45
2017-12-23T05:29:33.209Z,98621.17
2017-12-23T05:31:10.708Z,98602.67
2017-12-23T05:32:47.383Z,98519.46
2017-12-23T05:34:26.677Z,98540.92
2017-12-23T05:36:03.401Z,98587.83
2017-12-23T05:37:40.110Z,98573.36
2017-12-23T05:39:16.897Z,98529.17
2017-12-23T05:40:53.604Z,98426.18
2017-12-23T05:42:30.396Z,98341.59
2017-12-23T05:44:07.110Z,98398.19
2017-12-23T05:45:44.588Z,98452.88
2017-12-23T05:47:21.639Z,98489.20
2017-12-23T05:48:58.353Z,98488.77
2017-12-23T05:50:35.919Z,98536.49
2017-12-23T05:52:12.689Z,98574.63
2017-12-23T05:53:49.785Z,98588.20
2017-12-23T05:55:26.450Z,98626.34
2017-12-23T05:57:03.167Z,98605.77
2017-12-23T05:58:40.330Z,98593.03
2017-12-23T06:00:22.582Z,98535.23
2017-12-23T06:02:00.229Z,98519.92
2017-12-23T06:03:36.949Z,98542.65
2017-12-23T06:05:13.574Z,98561.11
2017-12-23T06:06:50.291Z,98560.61
2017-12-23T06:08:27.488Z,98589.13
2017-12-23T06:10:04.210Z,98633.86
2017-12-23T06:11:42.325Z,98518.97
2017-12-23T06:13:19.057Z,98477.39
2017-12-23T06:15:01.652Z,98256.31
2017-12-23T06:16:38.385Z,98144.82
2017-12-23T06:18:15.545Z,98207.40
2017-12-23T06:19:52.227Z,98290.06
2017-12-23T06:21:29.141Z,98377.18
2017-12-23T06:23:05.864Z,98526.05
2017-12-23T06:24:43.053Z,98554.92
2017-12-23T06:26:19.878Z,98549.33
2017-12-23T06:27:57.736Z,98529.05
2017-12-23T06:29:35.505Z,98623.74
2017-12-23T06:31:13.509Z,98696.16
2017-12-23T06:32:50.173Z,98649.23
2017-12-23T06:34:32.001Z,98658.86
2017-12-23T06:36:08.684Z,98733.41
2017-12-23T06:37:45.643Z,98723.73
2017-12-23T06:39:27.515Z,98535.66
2017-12-23T06:41:04.180Z,98524.31
2017-12-23T06:42:40.916Z,98606.17
2017-12-23T06:44:19.870Z,98615.45
2017-12-23T06:45:59.104Z,98687.80
2017-12-23T06:47:35.721Z,98714.53
2017-12-23T06:49:13.748Z,98687.83
2017-12-23T06:50:50.834Z,98684.27
2017-12-23T06:52:27.513Z,98714.53
2017-12-23T06:54:04.301Z,98598.81
2017-12-23T06:55:40.927Z,98538.78
2017-12-23T06:57:18.138Z,98616.88
2017-12-23T06:58:55.162Z,98651.00
2017-12-23T07:00:32.376Z,98729.92
2017-12-23T07:02:09.040Z,98801.94
2017-12-23T07:03:46.995Z,98775.58
2017-12-23T07:05:23.743Z,98723.73
2017-12-23T07:07:01.148Z,98739.11
2017-12-23T07:08:37.822Z,98581.24
2017-12-23T07:10:14.901Z,98609.36
2017-12-23T07:11:51.618Z,98517.73
2017-12-23T07:13:29.186Z,98567.27
2017-12-23T07:15:06.021Z,98519.06
2017-12-23T07:16:44.636Z,98400.84
2017-12-23T07:18:21.625Z,98329.46
2017-12-23T07:19:59.067Z,98463.95
2017-12-23T07:21:35.964Z,98594.92
2017-12-23T07:23:19.352Z,98662.85
2017-12-23T07:24:56.033Z,98693.55
2017-12-23T07:26:33.544Z,98694.88
2017-12-23T07:28:10.202Z,98528.27
2017-12-23T07:29:46.926Z,98445.06
2017-12-23T07:31:25.538Z,98525.68
2017-12-23T07:33:02.449Z,98652.33
2017-12-23T07:34:42.308Z,98721.19
2017-12-23T07:36:19.024Z,98810.27
2017-12-23T07:37:56.076Z,98816.03
2017-12-23T07:39:33.612Z,98719.42
2017-12-23T07:41:10.968Z,98643.11
2017-12-23T07:42:47.648Z,98624.70
2017-12-23T07:44:25.200Z,98691.39
2017-12-23T07:46:02.821Z,98606.70
2017-12-23T07:47:41.951Z,98508.61
2017-12-23T07:49:18.678Z,98474.42
2017-12-23T07:50:55.357Z,98501.13
2017-12-23T07:54:08.104Z,98531.80
2017-12-23T07:55:45.339Z,98535.26
2017-12-23T07:57:22.223Z,98599.31
2017-12-23T07:59:00.434Z,98712.47
2017-12-23T08:00:37.666Z,98815.59
2017-12-23T08:02:14.487Z,98832.25
2017-12-23T08:03:51.161Z,98859.48
2017-12-23T08:05:28.219Z,98764.16
2017-12-23T08:07:05.076Z,98617.72
2017-12-23T08:08:42.025Z,98523.08
2017-12-23T08:10:18.685Z,98552.45
2017-12-23T08:11:56.957Z,98733.91
2017-12-23T08:13:33.745Z,98836.22
2017-12-23T08:15:11.139Z,98846.75
2017-12-23T08:16:47.885Z,98855.61
2017-12-23T08:18:24.972Z,98938.56
2017-12-23T08:20:02.037Z,98956.53
2017-12-23T08:21:38.956Z,98973.74
2017-12-23T08:23:15.579Z,98936.80
2017-12-23T08:24:53.013Z,98875.31
2017-12-23T08:26:30.417Z,98783.54
2017-12-23T08:28:07.090Z,98651.09
2017-12-23T08:29:44.070Z,98713.33
2017-12-23T08:31:22.173Z,98816.52
2017-12-23T08:32:59.138Z,98927.66
2017-12-23T08:34:35.902Z,98928.02
2017-12-23T08:36:12.657Z,98838.45
2017-12-23T08:37:49.987Z,98767.72
2017-12-23T08:39:27.434Z,98687.02
2017-12-23T08:41:04.109Z,98764.25
2017-12-23T08:42:40.900Z,98884.92
2017-12-23T08:44:22.064Z,98927.13
2017-12-23T08:45:59.640Z,98733.05
2017-12-23T08:47:36.308Z,98719.45
2017-12-23T08:49:13.291Z,98893.78
2017-12-23T08:50:50.704Z,98946.93
2017-12-23T08:52:27.819Z,98966.73
2017-12-23T08:54:05.478Z,98974.14
2017-12-23T08:55:43.259Z,98934.56
2017-12-23T08:57:21.317Z,98822.69
2017-12-23T08:58:58.018Z,98868.72
2017-12-23T09:00:34.879Z,99006.27
2017-12-23T09:02:13.760Z,98996.50
2017-12-23T09:03:52.326Z,98785.74
2017-12-23T09:05:29.303Z,98497.64
2017-12-23T09:07:07.930Z,98458.27
2017-12-23T09:08:45.694Z,98518.19
2017-12-23T09:10:25.304Z,98564.23
2017-12-23T09:12:03.190Z,98639.71
2017-12-23T09:13:48.927Z,98621.24
2017-12-23T09:15:28.726Z,98476.63
2017-12-23T09:17:06.717Z,98601.02
2017-12-23T09:18:45.204Z,98676.50
2017-12-23T09:20:25.463Z,98658.48
2017-12-23T09:22:06.994Z,98687.45
2017-12-23T09:23:50.415Z,98758.16
2017-12-23T09:27:11.731Z,98554.19
2017-12-23T09:28:54.897Z,98548.03
2017-12-23T09:30:36.489Z,98673.47
2017-12-23T09:32:16.787Z,98594.48
2017-12-23T09:33:59.026Z,98527.04
2017-12-23T09:35:40.611Z,98640.11
2017-12-23T09:37:22.934Z,98745.77
2017-12-23T09:39:03.323Z,98831.79
2017-12-23T09:40:45.551Z,98791.00
2017-12-23T09:42:28.376Z,98707.70
2017-12-23T09:44:09.704Z,98760.23
2017-12-23T09:45:54.623Z,98832.35
2017-12-23T09:47:36.420Z,98880.98
2017-12-23T09:49:19.075Z,98859.92
2017-12-23T09:51:04.606Z,98869.64
2017-12-23T09:52:45.433Z,98897.25
2017-12-23T09:54:28.011Z,98922.79
2017-12-23T09:56:10.698Z,98865.19
2017-12-23T09:57:54.985Z,98703.17
2017-12-23T09:59:36.485Z,98704.57
2017-12-23T10:01:17.326Z,98789.77
2017-12-23T10:03:00.150Z,98847.66
2017-12-23T10:04:41.144Z,98773.95
2017-12-23T10:06:20.335Z,98635.72
2017-12-23T10:08:05.220Z,98735.71
2017-12-23T10:09:49.093Z,98755.49
2017-12-23T10:11:32.448Z,98676.04
2017-12-23T10:13:14.292Z,98553.32
2017-12-23T10:14:56.286Z,98496.80
2017-12-23T10:16:47.842Z,98589.33
2017-12-23T10:18:31.184Z,98751.99
2017-12-23T10:20:14.984Z,98879.31
2017-12-23T10:21:59.904Z,98716.89
2017-12-23T10:23:47.758Z,98706.37
2017-12-23T10:25:33.624Z,98650.20
2017-12-23T10:27:17.333Z,98736.61
2017-12-23T10:28:59.709Z,98837.12
2017-12-23T10:30:44.580Z,98899.02
2017-12-23T10:32:28.842Z,98932.89
2017-12-23T10:34:11.618Z,98692.72
2017-12-23T10:35:53.443Z,98672.54
2017-12-23T10:37:36.477Z,98815.62
2017-12-23T10:39:23.090Z,98836.22
2017-12-23T10:41:08.714Z,98894.65
2017-12-23T10:42:55.831Z,98896.81
2017-12-23T10:44:42.358Z,98892.42
2017-12-23T10:46:25.802Z,98820.05
2017-12-23T10:48:19.660Z,98673.84
2017-12-23T10:50:03.110Z,98561.27
2017-12-23T10:51:46.217Z,98516.13
2017-12-23T10:53:29.359Z,98551.59
2017-12-23T10:55:14.042Z,98681.36
2017-12-23T10:56:57.641Z,98659.89
2017-12-23T10:58:41.277Z,98613.82
2017-12-23T11:00:34.065Z,98690.58
2017-12-23T11:02:22.984Z,98782.67
2017-12-23T11:04:05.823Z,98894.22
2017-12-23T11:05:49.175Z,98813.83
2017-12-23T11:07:34.433Z,98569.50
2017-12-23T11:09:20.381Z,98672.64
2017-12-23T11:11:03.303Z,98591.45
2017-12-23T11:12:48.119Z,98610.78
2017-12-23T11:14:32.128Z,98587.47
2017-12-23T11:18:10.626Z,98530.13
2017-12-23T11:19:56.962Z,98636.55
2017-12-23T11:21:39.693Z,98582.30
2017-12-23T11:23:23.228Z,98605.93
2017-12-23T11:25:07.659Z,98691.81
2017-12-23T11:26:50.141Z,98714.16
2017-12-23T11:28:31.586Z,98649.30
2017-12-23T11:30:28.442Z,98696.31
2017-12-23T11:32:10.075Z,98719.92
2017-12-23T11:33:53.558Z,98607.66
2017-12-23T11:35:35.728Z,98601.51
2017-12-23T11:37:15.761Z,98580.50
2017-12-23T11:38:57.077Z,98671.70
2017-12-23T11:40:38.769Z,98787.97
2017-12-23T11:42:18.664Z,98790.60
2017-12-23T11:44:01.782Z,98809.86
2017-12-23T11:45:45.300Z,98822.72
2017-12-23T11:47:28.055Z,98813.45
2017-12-23T11:49:11.483Z,98784.91
2017-12-23T11:50:55.778Z,98852.14
2017-12-23T11:52:37.503Z,98931.16
2017-12-23T11:54:19.733Z,98773.95
2017-12-23T11:56:04.993Z,98608.13
2017-12-23T11:57:47.120Z,98708.97
2017-12-23T11:59:30.833Z,98740.11
2017-12-23T12:01:27.153Z,98708.50
2017-12-23T12:03:09.217Z,98636.52
2017-12-23T12:04:49.474Z,98588.42
2017-12-23T12:06:31.853Z,98557.72
2017-12-23T12:08:19.626Z,98679.59
2017-12-23T12:10:02.407Z,98636.65
2017-12-23T12:11:40.253Z,98672.14
2017-12-23T12:13:20.772Z,98649.36
2017-12-23T12:14:59.959Z,98655.83
2017-12-23T12:16:41.353Z,98480.58
2017-12-23T12:18:18.568Z,98519.66
2017-12-23T12:19:57.430Z,98522.19
2017-12-23T12:21:37.197Z,98533.59
2017-12-23T12:23:15.090Z,98524.84
2017-12-23T12:24:52.074Z,98462.19
2017-12-23T12:26:29.680Z,98515.70
2017-12-23T12:28:08.566Z,98471.80
2017-12-23T12:29:53.083Z,98511.70
2017-12-23T12:31:35.750Z,98406.56
2017-12-23T12:33:16.797Z,98312.52
2017-12-23T12:34:55.526Z,98472.30
2017-12-23T12:36:37.301Z,98458.66
2017-12-23T12:38:17.755Z,98394.73
2017-12-23T12:39:56.178Z,98396.49
2017-12-23T12:41:33.775Z,98359.27
2017-12-23T12:43:11.553Z,98406.59
2017-12-23T12:44:50.466Z,98374.59
2017-12-23T12:46:29.410Z,98373.82
2017-12-23T12:48:17.652Z,98372.83
2017-12-23T12:50:05.310Z,98318.09
2017-12-23T12:51:52.680Z,98299.69
2017-12-23T12:53:40.627Z,98363.25
2017-12-23T12:55:26.079Z,98361.89
2017-12-23T12:57:06.228Z,98382.06
2017-12-23T12:58:45.737Z,98448.19
2017-12-23T13:00:28.797Z,98544.11
2017-12-23T13:02:07.753Z,98609.89
2017-12-23T13:03:51.716Z,98631.33
2017-12-23T13:05:32.659Z,98655.83
2017-12-23T13:07:11.133Z,98526.14
2017-12-23T13:08:57.944Z,98532.33
2017-12-23T13:10:35.972Z,98631.33
2017-12-23T13:12:25.207Z,98673.88
2017-12-23T13:14:12.957Z,98705.41
2017-12-23T13:15:51.918Z,98635.25
2017-12-23T13:17:30.091Z,98633.12
2017-12-23T13:19:07.563Z,98611.16
2017-12-23T13:20:47.453Z,98570.42
2017-12-23T13:22:29.344Z,98598.87
2017-12-23T13:24:13.019Z,98626.59
2017-12-23T13:25:54.165Z,98660.35
2017-12-23T13:27:34.381Z,98626.97
2017-12-23T13:29:20.587Z,98669.54
2017-12-23T13:31:00.958Z,98634.89
2017-12-23T13:32:41.570Z,98572.66
2017-12-23T13:34:22.243Z,98693.21
2017-12-23T13:36:07.668Z,98766.88
2017-12-23T13:37:52.031Z,98770.84
2017-12-23T13:39:36.242Z,98640.91
2017-12-23T13:41:20.695Z,98582.80
2017-12-23T13:42:58.735Z,98524.84
2017-12-23T13:44:38.378Z,98547.66
2017-12-23T13:46:17.323Z,98544.11
2017-12-23T13:47:58.639Z,98549.86
2017-12-23T13:49:39.410Z,98577.84
2017-12-23T13:51:21.661Z,98613.75
2017-12-23T13:52:58.290Z,98626.94
2017-12-23T13:54:38.980Z,98670.44
2017-12-23T13:56:18.801Z,98665.08
2017-12-23T13:57:56.665Z,98639.22
2017-12-23T13:59:33.314Z,98610.76
2017-12-23T14:01:10.715Z,98596.75
2017-12-23T14:02:48.082Z,98650.70
2017-12-23T14:04:26.311Z,98666.84
2017-12-23T14:06:06.104Z,98680.89
2017-12-23T14:07:50.818Z,98666.41
2017-12-23T14:09:36.718Z,98591.45
2017-12-23T14:11:14.941Z,98637.98
2017-12-23T14:12:57.115Z,98695.38
2017-12-23T14:14:40.769Z,98716.02
2017-12-23T14:16:26.153Z,98701.14
2017-12-23T14:18:10.159Z,98750.63
2017-12-23T14:19:56.133Z,98815.62
2017-12-23T14:21:38.318Z,98746.20
2017-12-23T14:23:15.204Z,98776.61
2017-12-23T14:24:59.058Z,98716.89
2017-12-23T14:26:35.726Z,98577.48
2017-12-23T14:28:13.019Z,98696.34
2017-12-23T14:29:50.206Z,98770.05
2017-12-23T14:31:27.272Z,98775.70
2017-12-23T14:33:08.674Z,98810.42
2017-12-23T14:34:53.692Z,98899.08
2017-12-23T14:36:39.756Z,98920.59
2017-12-23T14:38:26.997Z,98947.05
2017-12-23T14:40:11.554Z,99009.83
2017-12-23T14:41:57.846Z,98975.11
2017-12-23T14:43:44.127Z,98899.95
2017-12-23T14:45:33.712Z,98899.55
2017-12-23T14:47:12.259Z,98974.27
2017-12-23T14:48:59.403Z,98953.19
2017-12-23T14:50:43.327Z,98777.10
2017-12-23T14:52:21.500Z,98792.00
2017-12-23T14:53:57.997Z,98862.70
2017-12-23T14:55:34.874Z,98903.91
2017-12-23T14:57:11.434Z,98895.14
2017-12-23T14:58:49.204Z,98887.24
2017-12-23T15:00:28.449Z,98941.34
2017-12-23T15:02:05.796Z,99008.15
2017-12-23T15:03:48.604Z,98977.80
2017-12-23T15:05:30.952Z,98770.54
2017-12-23T15:07:16.914Z,98673.09
2017-12-23T15:09:00.655Z,98601.20
2017-12-23T15:10:45.171Z,98508.28
2017-12-23T15:12:29.559Z,98662.17
2017-12-23T15:14:13.908Z,98472.36
2017-12-23T15:16:00.114Z,98397.12
2017-12-23T15:17:44.482Z,98564.83
2017-12-23T15:19:30.231Z,98556.88
2017-12-23T15:21:13.250Z,98531.00
2017-12-23T15:22:57.356Z,98675.30
2017-12-23T15:24:41.530Z,98610.85
2017-12-23T15:26:25.807Z,98695.41
2017-12-23T15:28:08.836Z,98617.81
2017-12-23T15:29:53.525Z,98645.88
2017-12-23T15:31:39.752Z,98752.89
2017-12-23T15:33:26.240Z,98871.88
2017-12-23T15:35:10.725Z,98890.31
2017-12-23T15:36:55.439Z,98883.22
2017-12-23T15:38:36.000Z,98859.05
2017-12-23T15:40:20.551Z,98738.80
2017-12-23T15:42:01.851Z,98780.60
2017-12-23T15:43:40.168Z,98798.59
2017-12-23T15:45:22.592Z,98879.81
2017-12-23T15:47:04.689Z,98881.54
2017-12-23T15:48:48.416Z,98980.41
2017-12-23T15:50:35.472Z,99037.08
2017-12-23T15:52:19.190Z,98926.37
2017-12-23T15:54:01.170Z,98957.59
2017-12-23T15:55:43.897Z,99101.31
2017-12-23T15:57:27.214Z,99064.80
2017-12-23T15:59:06.013Z,99153.56
2017-12-23T16:00:49.226Z,99166.31
2017-12-23T16:02:30.200Z,99231.87
2017-12-23T16:04:13.471Z,99005.05
2017-12-23T16:05:57.731Z,98918.45
2017-12-23T16:07:45.882Z,98981.30
2017-12-23T16:09:34.626Z,99046.88
2017-12-23T16:11:22.715Z,99070.95
2017-12-23T16:13:08.404Z,98910.94
2017-12-23T16:14:54.162Z,98925.92
2017-12-23T16:16:42.592Z,98863.48
2017-12-23T16:18:28.801Z,98804.30
2017-12-23T16:20:12.707Z,98668.70
2017-12-23T16:21:58.980Z,98760.41
2017-12-23T16:23:43.403Z,98908.84
2017-12-23T16:25:26.479Z,98988.34
2017-12-23T16:27:07.169Z,98928.58
2017-12-23T16:28:51.275Z,99005.86
2017-12-23T16:30:37.072Z,99064.34
2017-12-23T16:32:26.664Z,99031.88
2017-12-23T16:34:13.472Z,99043.69
2017-12-23T16:35:56.717Z,98943.92
2017-12-23T16:37:39.616Z,99015.56
2017-12-23T16:39:29.397Z,99198.91
2017-12-23T16:41:12.814Z,99071.35
2017-12-23T16:42:55.714Z,99165.48
2017-12-23T16:44:38.372Z,99211.69
2017-12-23T16:46:25.551Z,99084.09
2017-12-23T16:48:14.719Z,99048.55
2017-12-23T16:49:59.069Z,99122.41
2017-12-23T16:51:43.688Z,99133.27
2017-12-23T16:53:29.085Z,99194.96
2017-12-23T16:55:13.565Z,99295.30
2017-12-23T16:56:58.531Z,99234.95
2017-12-23T16:58:41.589Z,99101.75
2017-12-23T17:00:27.874Z,99146.14
2017-12-23T17:02:10.795Z,99232.83
2017-12-23T17:03:53.546Z,99289.09
2017-12-23T17:05:35.966Z,99370.57
2017-12-23T17:07:19.306Z,99397.41
2017-12-23T17:08:57.510Z,99235.88
2017-12-23T17:10:35.639Z,99274.97
2017-12-23T17:12:12.155Z,99303.59
2017-12-23T17:13:48.710Z,99338.42
2017-12-23T17:15:29.866Z,99367.47
2017-12-23T17:17:08.047Z,99373.24
2017-12-23T17:18:45.882Z,99379.36
2017-12-23T17:20:29.675Z,99275.00
2017-12-23T17:22:15.388Z,99068.34
2017-12-23T17:23:58.826Z,99169.39
2017-12-23T17:25:49.813Z,99231.93
2017-12-23T17:27:34.108Z,99314.66
2017-12-23T17:30:43.508Z,99368.83
2017-12-23T17:32:29.104Z,99304.50
2017-12-23T17:34:13.460Z,99316.89
2017-12-23T17:35:54.829Z,99339.31
2017-12-23T17:37:37.861Z,99337.11
2017-12-23T17:39:24.280Z,99367.50
2017-12-23T17:41:05.367Z,99228.83
2017-12-23T17:42:49.602Z,99215.23
2017-12-23T17:44:29.360Z,99279.44
2017-12-23T17:46:11.419Z,99325.65
2017-12-23T17:47:50.981Z,99341.98
2017-12-23T17:49:30.083Z,99374.14
2017-12-23T17:51:07.033Z,99297.95
2017-12-23T17:52:47.593Z,99139.09
2017-12-23T17:54:26.157Z,98974.33
2017-12-23T17:56:04.468Z,99135.53
2017-12-23T17:57:43.067Z,99095.11
2017-12-23T17:59:20.804Z,99088.97
2017-12-23T18:01:00.330Z,99079.78
2017-12-23T18:02:42.896Z,99089.46
2017-12-23T18:04:24.817Z,99001.08
2017-12-23T18:06:08.648Z,99091.63
2017-12-23T18:07:53.172Z,99150.52
2017-12-23T18:11:42.650Z,99123.16
2017-12-23T18:13:29.556Z,98869.73
2017-12-23T18:15:17.647Z,98996.24
2017-12-23T18:17:01.781Z,99044.49
2017-12-23T18:18:47.703Z,99122.35
2017-12-23T18:20:31.314Z,99114.44
2017-12-23T18:22:14.562Z,99004.95
2017-12-23T18:23:59.053Z,99027.44
2017-12-23T18:25:43.579Z,98922.41
2017-12-23T18:27:27.191Z,98825.81
2017-12-23T18:29:09.349Z,98857.41
2017-12-23T18:30:51.851Z,99027.00
2017-12-23T18:32:42.624Z,99001.05
2017-12-23T18:34:24.698Z,99134.66
2017-12-23T18:36:08.164Z,99088.47
2017-12-23T18:37:47.591Z,99042.38
2017-12-23T18:39:29.003Z,98898.64
2017-12-23T18:41:10.632Z,98930.34
2017-12-23T18:42:52.773Z,98975.13
2017-12-23T18:44:35.483Z,99028.30
2017-12-23T18:46:19.714Z,99111.86
2017-12-23T18:48:02.497Z,99231.37
2017-12-23T18:49:45.992Z,99244.11
2017-12-23T18:51:26.550Z,99252.95
2017-12-23T18:53:06.089Z,99124.95
2017-12-23T18:54:48.366Z,99165.88
2017-12-23T18:56:26.852Z,99128.46
2017-12-23T18:58:04.488Z,99135.53
2017-12-23T18:59:42.049Z,99062.05
2017-12-23T19:01:19.881Z,99014.20
2017-12-23T19:03:01.194Z,98837.25
2017-12-23T19:04:41.386Z,98843.34
2017-12-23T19:06:20.140Z,98960.62
2017-12-23T19:07:58.140Z,99026.57
2017-12-23T19:09:38.285Z,99012.00
2017-12-23T19:11:19.505Z,98870.52
2017-12-23T19:12:59.432Z,98893.38
2017-12-23T19:14:40.115Z,98932.09
2017-12-23T19:16:35.438Z,99039.72
2017-12-23T19:18:18.405Z,99121.83
2017-12-23T19:20:02.897Z,98884.55
2017-12-23T19:21:46.763Z,98922.35
2017-12-23T19:23:25.394Z,99014.17
2017-12-23T19:25:06.418Z,99041.86
2017-12-23T19:26:46.588Z,99089.78
2017-12-23T19:28:25.832Z,99050.17
2017-12-23T19:30:05.714Z,99099.42
2017-12-23T19:31:48.014Z,98984.28
2017-12-23T19:33:29.687Z,99034.36
2017-12-23T19:35:13.202Z,99010.26
2017-12-23T19:36:56.778Z,99056.40
2017-12-23T19:38:36.413Z,99084.94
2017-12-23T19:40:21.039Z,99064.74
2017-12-23T19:42:05.122Z,99098.96
2017-12-23T19:44:01.191Z,99117.51
2017-12-23T19:45:43.868Z,99154.81